createdAt,value
2018-06-14T00:02:09.838Z,13.73
2018-06-14T00:05:34.704Z,14.57
2018-06-14T00:08:59.366Z,14.17
2018-06-14T00:12:24.091Z,13.90
2018-06-14T00:15:48.723Z,14.67
2018-06-14T00:19:13.588Z,17.17
2018-06-14T00:22:38.340Z,12.47
2018-06-14T00:26:03.034Z,14.50
2018-06-14T00:29:27.760Z,12.00
2018-06-14T00:32:52.431Z,12.40
2018-06-14T00:36:17.162Z,12.03
2018-06-14T00:39:41.807Z,14.80
2018-06-14T00:43:06.528Z,15.73
2018-06-14T00:46:30.986Z,13.33
2018-06-14T00:49:55.647Z,14.17
2018-06-14T00:53:20.344Z,13.33
2018-06-14T00:57:02.232Z,15.00
2018-06-14T01:00:26.944Z,14.20
2018-06-14T01:03:51.695Z,14.80
2018-06-14T01:07:16.534Z,14.20
2018-06-14T01:10:41.221Z,13.33
2018-06-14T01:14:06.119Z,14.13
2018-06-14T01:17:30.892Z,12.57
2018-06-14T01:20:55.571Z,13.60
2018-06-14T01:24:20.248Z,18.57
2018-06-14T01:27:44.989Z,13.20
2018-06-14T01:31:09.707Z,17.23
2018-06-14T01:36:03.544Z,14.30
2018-06-14T01:39:28.290Z,14.60
2018-06-14T01:42:52.996Z,13.40
2018-06-14T01:46:17.778Z,15.77
2018-06-14T01:49:42.516Z,15.20
2018-06-14T01:53:07.184Z,14.33
2018-06-14T01:56:31.888Z,15.47
2018-06-14T01:59:56.561Z,19.87
2018-06-14T02:03:21.289Z,17.80
2018-06-14T02:06:45.949Z,15.00
2018-06-14T02:10:10.634Z,15.47
2018-06-14T02:13:35.278Z,15.43
2018-06-14T02:16:59.974Z,15.70
2018-06-14T02:20:25.278Z,18.30
2018-06-14T02:23:49.955Z,15.60
2018-06-14T02:27:14.665Z,17.87
2018-06-14T02:30:38.978Z,15.90
2018-06-14T02:34:03.623Z,15.17
2018-06-14T02:37:28.470Z,15.77
2018-06-14T02:40:53.894Z,16.97
2018-06-14T02:44:18.645Z,23.73
2018-06-14T02:47:43.259Z,18.40
2018-06-14T02:51:07.554Z,21.03
2018-06-14T02:54:33.217Z,20.73
2018-06-14T02:57:57.898Z,22.90
2018-06-14T03:01:22.561Z,22.47
2018-06-14T03:04:47.277Z,22.27
2018-06-14T03:08:11.890Z,21.73
2018-06-14T03:11:36.578Z,21.10
2018-06-14T03:15:01.416Z,21.10
2018-06-14T03:18:25.747Z,18.70
2018-06-14T03:21:50.398Z,19.37
2018-06-14T03:25:15.037Z,20.30
2018-06-14T03:28:39.887Z,19.07
2018-06-14T03:32:04.634Z,20.07
2018-06-14T03:35:29.394Z,19.67
2018-06-14T03:38:54.147Z,22.13
2018-06-14T03:42:18.826Z,29.43
2018-06-14T03:45:43.497Z,24.03
2018-06-14T03:49:08.123Z,25.53
2018-06-14T03:52:32.805Z,26.93
2018-06-14T03:55:57.478Z,25.57
2018-06-14T03:59:22.092Z,24.10
2018-06-14T04:02:46.784Z,24.57
2018-06-14T04:06:11.429Z,22.67
2018-06-14T04:09:36.098Z,22.57
2018-06-14T04:13:00.783Z,22.80
2018-06-14T04:16:26.249Z,19.67
2018-06-14T04:19:50.885Z,20.93
2018-06-14T04:23:15.625Z,18.53
2018-06-14T04:26:40.763Z,18.77
2018-06-14T04:30:05.156Z,17.83
2018-06-14T04:33:29.850Z,18.97
2018-06-14T04:36:54.601Z,22.17
2018-06-14T04:40:19.407Z,18.30
2018-06-14T04:43:44.555Z,17.17
2018-06-14T04:47:09.279Z,18.50
2018-06-14T04:50:34.147Z,21.03
2018-06-14T04:53:58.853Z,18.00
2018-06-14T04:57:23.554Z,17.73
2018-06-14T05:00:48.287Z,19.23
2018-06-14T05:04:13.017Z,24.90
2018-06-14T05:07:37.438Z,21.20
2018-06-14T05:11:02.131Z,21.50
2018-06-14T05:14:26.425Z,19.93
2018-06-14T05:17:51.098Z,21.27
2018-06-14T05:21:15.919Z,20.53
2018-06-14T05:24:40.581Z,18.70
2018-06-14T05:28:05.453Z,20.43
2018-06-14T05:31:30.202Z,18.33
2018-06-14T05:34:54.960Z,19.57
2018-06-14T05:38:19.352Z,18.57
2018-06-14T05:41:44.053Z,21.70
2018-06-14T05:45:08.805Z,19.40
2018-06-14T05:48:33.511Z,20.13
2018-06-14T05:51:58.305Z,23.13
2018-06-14T05:55:23.012Z,20.57
2018-06-14T05:58:47.681Z,19.93
2018-06-14T06:02:12.306Z,20.27
2018-06-14T06:05:37.131Z,17.93
2018-06-14T06:09:02.013Z,19.07
2018-06-14T06:12:26.331Z,17.10
2018-06-14T06:15:51.074Z,17.67
2018-06-14T06:19:15.805Z,19.40
2018-06-14T06:22:40.418Z,16.40
2018-06-14T06:26:05.280Z,19.40
2018-06-14T06:29:30.149Z,19.17
2018-06-14T06:32:54.739Z,18.13
2018-06-14T06:36:19.535Z,17.37
2018-06-14T06:39:44.403Z,17.40
2018-06-14T06:43:10.225Z,19.47
2018-06-14T06:46:35.052Z,16.77
2018-06-14T06:50:00.091Z,19.27
2018-06-14T06:53:25.148Z,18.03
2018-06-14T06:56:49.719Z,17.13
2018-06-14T07:00:14.654Z,16.00
2018-06-14T07:03:39.436Z,14.37
2018-06-14T07:07:04.215Z,16.00
2018-06-14T07:10:30.084Z,15.60
2018-06-14T07:13:55.094Z,14.90
2018-06-14T07:17:19.871Z,14.43
2018-06-14T07:20:45.250Z,14.53
2018-06-14T07:24:09.586Z,14.57
2018-06-14T07:27:34.260Z,13.20
2018-06-14T07:30:59.045Z,17.13
2018-06-14T07:34:25.057Z,15.13
2018-06-14T07:37:49.819Z,13.93
2018-06-14T07:41:16.857Z,15.93
2018-06-14T07:44:43.043Z,15.63
2018-06-14T07:48:08.513Z,13.93
2018-06-14T07:51:34.113Z,14.37
2018-06-14T07:54:59.958Z,11.27
2018-06-14T07:58:24.741Z,14.30
2018-06-14T08:01:49.477Z,15.33
2018-06-14T08:05:15.089Z,13.47
2018-06-14T08:08:39.905Z,10.77
2018-06-14T08:12:04.783Z,15.30
2018-06-14T08:15:29.506Z,10.80
2018-06-14T08:18:54.488Z,9.57
2018-06-14T08:22:19.666Z,10.60
2018-06-14T08:25:44.430Z,11.33
2018-06-14T08:29:09.151Z,12.00
2018-06-14T08:32:34.702Z,9.10
2018-06-14T08:35:59.168Z,10.13
2018-06-14T08:39:24.441Z,9.97
2018-06-14T08:42:48.884Z,10.50
2018-06-14T08:46:13.589Z,9.90
2018-06-14T08:49:38.079Z,11.17
2018-06-14T08:53:02.801Z,10.53
2018-06-14T08:56:27.132Z,11.27
2018-06-14T08:59:51.854Z,14.20
2018-06-14T09:03:16.737Z,10.10
2018-06-14T09:06:42.654Z,9.87
2018-06-14T09:10:07.556Z,10.90
2018-06-14T09:13:32.273Z,12.27
2018-06-14T09:16:56.993Z,9.67
2018-06-14T09:20:21.655Z,14.33
2018-06-14T09:23:46.393Z,8.60
2018-06-14T09:27:11.125Z,11.90
2018-06-14T09:30:35.871Z,16.37
2018-06-14T09:34:00.615Z,9.00
2018-06-14T09:37:25.359Z,8.40
2018-06-14T09:40:50.084Z,9.27
2018-06-14T09:44:14.760Z,7.93
2018-06-14T09:47:39.643Z,9.00
2018-06-14T09:51:05.480Z,7.23
2018-06-14T09:54:30.308Z,7.03
2018-06-14T09:57:55.253Z,7.77
2018-06-14T10:01:19.962Z,10.17
2018-06-14T10:04:44.668Z,8.60
2018-06-14T10:08:08.968Z,8.17
2018-06-14T10:11:33.696Z,7.10
2018-06-14T10:14:58.337Z,8.37
2018-06-14T10:18:23.325Z,8.30
2018-06-14T10:21:48.061Z,8.87
2018-06-14T10:25:12.871Z,7.10
2018-06-14T10:28:37.518Z,7.03
2018-06-14T10:32:02.191Z,6.57
2018-06-14T10:35:26.855Z,6.17
2018-06-14T10:38:51.717Z,6.70
2018-06-14T10:42:16.420Z,5.93
2018-06-14T10:45:41.182Z,7.83
2018-06-14T10:49:05.864Z,6.40
2018-06-14T10:52:30.963Z,7.43
2018-06-14T10:55:55.661Z,8.10
2018-06-14T11:07:19.336Z,7.00
2018-06-14T11:10:44.437Z,6.37
2018-06-14T11:14:10.453Z,6.70
2018-06-14T11:17:35.145Z,6.03
2018-06-14T11:20:59.994Z,6.57
2018-06-14T11:24:24.752Z,6.97
2018-06-14T11:27:49.491Z,6.37
2018-06-14T11:31:14.204Z,5.87
2018-06-14T11:34:41.578Z,6.20
2018-06-14T11:38:07.815Z,10.63
2018-06-14T11:41:32.249Z,6.70
2018-06-14T11:44:57.110Z,6.13
2018-06-14T11:48:21.887Z,5.67
2018-06-14T11:51:46.587Z,6.03
2018-06-14T11:55:11.381Z,6.50
2018-06-14T11:58:36.368Z,5.47
2018-06-14T12:02:01.133Z,6.63
2018-06-14T12:05:25.787Z,6.47
2018-06-14T12:08:50.560Z,5.60
2018-06-14T12:12:16.734Z,5.13
2018-06-14T12:15:41.450Z,6.77
2018-06-14T12:19:06.183Z,5.17
2018-06-14T12:22:30.898Z,4.83
2018-06-14T12:25:55.544Z,3.90
2018-06-14T12:29:19.951Z,6.30
2018-06-14T12:32:44.755Z,6.30
2018-06-14T12:36:09.559Z,6.27
2018-06-14T12:39:34.330Z,5.27
2018-06-14T12:42:59.129Z,5.57
2018-06-14T12:46:23.830Z,6.63
2018-06-14T12:49:49.638Z,5.67
2018-06-14T12:53:17.401Z,6.67
2018-06-14T12:56:43.265Z,6.00
2018-06-14T13:00:09.364Z,5.13
2018-06-14T13:03:35.721Z,4.33
2018-06-14T13:07:00.890Z,4.93
2018-06-14T13:10:26.839Z,4.83
2018-06-14T13:13:53.695Z,4.73
2018-06-14T13:17:18.626Z,4.97
2018-06-14T13:20:43.440Z,6.60
2018-06-14T13:24:08.918Z,4.93
2018-06-14T13:27:34.492Z,8.17
2018-06-14T13:30:59.224Z,5.07
2018-06-14T13:34:23.849Z,5.47
2018-06-14T13:37:50.345Z,4.13
2018-06-14T13:41:15.294Z,4.97
2018-06-14T13:44:40.117Z,4.33
2018-06-14T13:48:04.944Z,5.17
2018-06-14T13:51:29.664Z,5.00
2018-06-14T13:54:54.391Z,4.47
2018-06-14T14:06:18.391Z,4.70
2018-06-14T14:09:43.378Z,4.43
2018-06-14T14:13:08.129Z,4.47
2018-06-14T14:16:35.998Z,4.43
2018-06-14T14:20:00.809Z,4.30
2018-06-14T14:23:25.815Z,4.27
2018-06-14T14:26:50.516Z,5.20
2018-06-14T14:30:16.217Z,5.77
2018-06-14T14:33:41.358Z,5.23
2018-06-14T14:37:06.372Z,6.17
2018-06-14T14:40:31.164Z,5.17
2018-06-14T14:43:55.578Z,4.30
2018-06-14T14:47:20.282Z,5.47
2018-06-14T14:50:45.164Z,4.07
2018-06-14T14:54:09.941Z,5.13
2018-06-14T14:57:34.797Z,4.87
2018-06-14T15:00:59.523Z,4.80
2018-06-14T15:04:24.324Z,4.83
2018-06-14T15:07:49.156Z,4.63
2018-06-14T15:11:14.074Z,5.60
2018-06-14T15:14:38.872Z,3.60
2018-06-14T15:18:03.325Z,4.67
2018-06-14T15:21:28.052Z,4.40
2018-06-14T15:24:53.030Z,4.43
2018-06-14T15:28:17.751Z,4.93
2018-06-14T15:31:42.256Z,4.17
2018-06-14T15:35:07.006Z,4.90
2018-06-14T15:38:31.388Z,5.50
2018-06-14T15:41:56.238Z,4.00
2018-06-14T15:45:20.942Z,4.33
2018-06-14T15:48:45.743Z,3.77
2018-06-14T15:52:10.597Z,4.37
2018-06-14T15:56:42.675Z,4.50
2018-06-14T16:00:07.417Z,3.40
2018-06-14T16:03:32.225Z,3.83
2018-06-14T16:06:57.067Z,4.23
2018-06-14T16:10:21.703Z,3.27
2018-06-14T16:13:46.374Z,4.83
2018-06-14T16:17:11.011Z,3.60
2018-06-14T16:20:35.709Z,3.53
2018-06-14T16:24:00.385Z,3.30
2018-06-14T16:27:25.057Z,3.33
2018-06-14T16:30:49.860Z,4.17
2018-06-14T16:34:14.519Z,4.50
2018-06-14T16:37:39.436Z,3.73
2018-06-14T16:41:04.088Z,3.47
2018-06-14T16:44:28.836Z,3.80
2018-06-14T16:47:53.463Z,3.70
2018-06-14T16:51:18.274Z,3.80
2018-06-14T16:54:42.722Z,3.13
2018-06-14T16:58:07.453Z,4.50
2018-06-14T17:01:32.247Z,3.57
2018-06-14T17:04:57.062Z,3.67
2018-06-14T17:08:21.732Z,3.77
2018-06-14T17:11:46.434Z,4.13
2018-06-14T17:15:11.142Z,4.03
2018-06-14T17:18:35.458Z,3.27
2018-06-14T17:22:00.166Z,2.77
2018-06-14T17:25:24.913Z,3.87
2018-06-14T17:28:49.614Z,2.70
2018-06-14T17:32:14.236Z,3.23
2018-06-14T17:35:39.123Z,3.30
2018-06-14T17:39:04.182Z,2.90
2018-06-14T17:42:28.543Z,3.30
2018-06-14T17:45:53.290Z,3.53
2018-06-14T17:49:18.279Z,4.50
2018-06-14T17:52:43.101Z,3.47
2018-06-14T17:56:08.064Z,3.50
2018-06-14T17:59:32.810Z,3.53
2018-06-14T18:02:57.684Z,5.07
2018-06-14T18:06:22.602Z,3.37
2018-06-14T18:14:18.497Z,3.40
2018-06-14T18:17:43.437Z,3.20
2018-06-14T18:21:07.975Z,4.87
2018-06-14T18:24:33.507Z,4.00
2018-06-14T18:27:58.529Z,4.50
2018-06-14T18:31:23.487Z,4.57
2018-06-14T18:34:49.461Z,3.90
2018-06-14T18:38:14.336Z,3.23
2018-06-14T18:41:39.290Z,3.67
2018-06-14T18:45:04.119Z,3.60
2018-06-14T18:48:28.536Z,3.80
2018-06-14T18:51:53.298Z,5.77
2018-06-14T18:55:18.143Z,5.40
2018-06-14T18:58:42.910Z,4.03
2018-06-14T19:02:07.645Z,3.97
2018-06-14T19:05:32.465Z,3.57
2018-06-14T19:08:57.347Z,4.47
2018-06-14T19:12:22.534Z,4.40
2018-06-14T19:15:47.383Z,3.67
2018-06-14T19:19:12.112Z,3.87
2018-06-14T19:22:36.934Z,3.83
2018-06-14T19:26:01.625Z,4.20
2018-06-14T19:29:26.311Z,3.90
2018-06-14T19:32:51.267Z,4.40
2018-06-14T19:36:16.101Z,4.80
2018-06-14T19:39:40.814Z,4.87
2018-06-14T19:43:05.840Z,4.67
2018-06-14T19:46:30.629Z,4.50
2018-06-14T19:49:55.327Z,5.90
2018-06-14T19:53:20.022Z,5.43
2018-06-14T19:56:44.824Z,4.53
2018-06-14T20:00:09.294Z,5.70
2018-06-14T20:03:33.995Z,6.30
2018-06-14T20:06:58.635Z,5.60
2018-06-14T20:10:23.314Z,5.87
2018-06-14T20:13:47.958Z,5.63
2018-06-14T20:17:12.734Z,5.77
2018-06-14T20:20:38.183Z,5.40
2018-06-14T20:24:04.488Z,6.03
2018-06-14T20:27:30.381Z,6.33
2018-06-14T20:30:55.749Z,6.00
2018-06-14T20:34:20.541Z,6.43
2018-06-14T20:37:48.770Z,7.13
2018-06-14T20:41:14.290Z,6.77
2018-06-14T20:44:41.164Z,7.37
2018-06-14T20:48:06.558Z,6.53
2018-06-14T20:51:31.840Z,7.87
2018-06-14T20:54:58.090Z,5.83
2018-06-14T20:58:23.329Z,6.00
2018-06-14T21:01:48.028Z,6.00
2018-06-14T21:05:12.685Z,7.43
2018-06-14T21:08:37.570Z,6.27
2018-06-14T21:12:01.924Z,6.13
2018-06-14T21:15:26.265Z,6.20
2018-06-14T21:18:51.069Z,8.87
2018-06-14T21:22:15.852Z,9.87
2018-06-14T21:25:40.573Z,10.10
2018-06-14T21:29:05.249Z,7.43
2018-06-14T21:32:30.134Z,6.53
2018-06-14T21:35:54.833Z,6.10
2018-06-14T21:39:19.479Z,9.50
2018-06-14T21:42:44.176Z,6.53
2018-06-14T21:46:08.537Z,6.50
2018-06-14T21:49:33.231Z,6.23
2018-06-14T21:52:57.955Z,7.27
2018-06-14T21:56:22.296Z,9.33
2018-06-14T21:59:47.199Z,9.53
2018-06-14T22:03:17.431Z,7.87
2018-06-14T22:06:44.838Z,6.77
2018-06-14T22:10:09.540Z,7.47
2018-06-14T22:13:34.764Z,6.63
2018-06-14T22:17:01.002Z,7.27
2018-06-14T22:20:26.283Z,7.20
2018-06-14T22:23:52.652Z,6.60
2018-06-14T22:27:18.301Z,7.80
2018-06-14T22:30:43.537Z,5.97
2018-06-14T22:34:25.699Z,6.40
2018-06-14T22:37:50.391Z,9.07
2018-06-14T22:41:15.374Z,7.17
2018-06-14T22:44:40.177Z,6.23
2018-06-14T22:48:05.333Z,8.13
2018-06-14T22:51:45.856Z,6.60
2018-06-14T22:55:10.508Z,6.77
2018-06-14T22:58:35.328Z,6.93
2018-06-14T23:02:00.034Z,7.00
2018-06-14T23:05:24.634Z,7.33
2018-06-14T23:08:49.391Z,7.00
2018-06-14T23:12:14.082Z,7.10
2018-06-14T23:15:38.870Z,7.87
2018-06-14T23:19:03.599Z,6.97
2018-06-14T23:22:28.294Z,7.30
2018-06-14T23:25:52.939Z,8.67
2018-06-14T23:29:17.638Z,7.53
2018-06-14T23:32:42.309Z,6.57
2018-06-14T23:36:06.966Z,7.57
2018-06-14T23:39:31.563Z,7.20
2018-06-14T23:42:56.166Z,7.07
2018-06-14T23:46:20.787Z,7.50
2018-06-14T23:49:45.379Z,7.53
2018-06-14T23:53:10.073Z,8.83
2018-06-14T23:56:34.760Z,8.00
2018-06-14T23:59:59.360Z,6.87
